Terminal Aerodrome Forecast
Issued by NWS Duluth, MN

Home | Current Version | Previous Version | Text Only | Print | Product List | Glossary Off
Versions: 1 2 3 4 5 6 7 8 9 10 11 12 13 14 15 16 17 18 19 20 21 22 23 24 25 26 27

000
FTUS43 KDLH 270530
TAFDLH
TAF
KDLH 270530Z 2706/2806 27006KT P6SM SKC
     FM271500 25007KT P6SM FEW250
     FM271900 23011KT P6SM FEW250
     FM272300 20009KT P6SM SCT200
     FM280200 19005KT P6SM BKN150=

USA.gov is the U.S. government's official web portal to all federal, state and local government web resources and services.